createdAt,value
2019-01-27T00:00:24.052Z,0
2019-01-27T00:01:26.174Z,0
2019-01-27T00:02:28.577Z,0
2019-01-27T00:03:30.692Z,0
2019-01-27T00:04:32.825Z,0
2019-01-27T00:05:34.936Z,0
2019-01-27T00:06:37.064Z,0
2019-01-27T00:07:39.177Z,0
2019-01-27T00:08:41.608Z,0
2019-01-27T00:09:43.776Z,0
2019-01-27T00:10:45.888Z,0
2019-01-27T00:11:48.311Z,0
2019-01-27T00:12:50.726Z,0
2019-01-27T00:13:52.836Z,0
2019-01-27T00:14:55.325Z,0
2019-01-27T00:15:57.446Z,0
2019-01-27T00:16:59.541Z,0
2019-01-27T00:18:01.675Z,0
2019-01-27T00:19:04.207Z,0
2019-01-27T00:20:06.955Z,0
2019-01-27T00:21:09.070Z,0
2019-01-27T00:22:11.201Z,0
2019-01-27T00:23:13.309Z,0
2019-01-27T00:24:15.449Z,0
2019-01-27T00:25:17.572Z,0
2019-01-27T00:26:19.671Z,0
2019-01-27T00:27:21.785Z,0
2019-01-27T00:28:23.898Z,0
2019-01-27T00:29:26.415Z,0
2019-01-27T00:30:28.518Z,0
2019-01-27T00:31:30.638Z,0
2019-01-27T00:32:32.760Z,0
2019-01-27T00:33:34.852Z,0
2019-01-27T00:34:36.983Z,0
2019-01-27T00:35:39.080Z,0
2019-01-27T00:36:41.192Z,0
2019-01-27T00:37:43.712Z,0
2019-01-27T00:38:45.847Z,0
2019-01-27T00:39:48.237Z,0
2019-01-27T00:40:50.372Z,0
2019-01-27T00:41:52.767Z,0
2019-01-27T00:42:54.913Z,0
2019-01-27T00:43:57.273Z,0
2019-01-27T00:44:59.761Z,0
2019-01-27T00:46:02.109Z,0
2019-01-27T00:47:04.603Z,0
2019-01-27T00:48:06.703Z,0
2019-01-27T00:49:08.820Z,0
2019-01-27T00:50:10.927Z,0
2019-01-27T00:51:13.040Z,0
2019-01-27T00:52:15.167Z,0
2019-01-27T00:53:17.284Z,0
2019-01-27T00:54:19.391Z,0
2019-01-27T00:55:21.791Z,0
2019-01-27T00:56:23.893Z,0
2019-01-27T00:57:25.998Z,0
2019-01-27T00:58:28.433Z,0
2019-01-27T00:59:30.524Z,0
2019-01-27T01:00:32.635Z,0
2019-01-27T01:01:35.335Z,0
2019-01-27T01:02:37.745Z,0
2019-01-27T01:03:39.847Z,0
2019-01-27T01:04:41.987Z,0
2019-01-27T01:05:44.095Z,0
2019-01-27T01:06:46.195Z,0
2019-01-27T01:07:48.647Z,0
2019-01-27T01:08:51.386Z,0
2019-01-27T01:09:53.680Z,0
2019-01-27T01:10:55.779Z,0
2019-01-27T01:11:57.898Z,0
2019-01-27T01:13:00.003Z,0
2019-01-27T01:14:02.676Z,0
2019-01-27T01:15:04.796Z,0
2019-01-27T01:16:06.889Z,0
2019-01-27T01:17:09.012Z,0
2019-01-27T01:18:11.419Z,0
2019-01-27T01:19:13.519Z,0
2019-01-27T01:20:15.630Z,0
2019-01-27T01:21:17.756Z,0
2019-01-27T01:22:19.863Z,0
2019-01-27T01:23:21.984Z,0
2019-01-27T01:24:24.475Z,0
2019-01-27T01:25:26.572Z,0
2019-01-27T01:26:28.680Z,0
2019-01-27T01:27:30.802Z,0
2019-01-27T01:28:32.905Z,0
2019-01-27T01:29:35.039Z,0
2019-01-27T01:30:37.160Z,0
2019-01-27T01:31:39.254Z,0
2019-01-27T01:32:41.380Z,0
2019-01-27T01:33:43.497Z,0
2019-01-27T01:34:45.620Z,0
2019-01-27T01:35:47.908Z,0
2019-01-27T01:36:50.425Z,0
2019-01-27T01:37:52.831Z,0
2019-01-27T01:38:54.941Z,0
2019-01-27T01:39:57.077Z,0
2019-01-27T01:40:59.170Z,0
2019-01-27T01:42:01.286Z,0
2019-01-27T01:43:03.398Z,0
2019-01-27T01:44:05.513Z,0
2019-01-27T01:45:07.608Z,0
2019-01-27T01:46:10.005Z,0
2019-01-27T01:47:12.391Z,0
2019-01-27T01:48:14.493Z,0
2019-01-27T01:49:16.622Z,0
2019-01-27T01:50:19.103Z,0
2019-01-27T01:51:21.214Z,0
2019-01-27T01:52:23.333Z,0
2019-01-27T01:53:25.736Z,0
2019-01-27T01:54:27.836Z,0
2019-01-27T01:55:29.950Z,0
2019-01-27T01:56:32.051Z,0
2019-01-27T01:57:34.161Z,0
2019-01-27T01:58:36.274Z,0
2019-01-27T01:59:38.391Z,0
2019-01-27T02:00:40.503Z,0
2019-01-27T02:01:42.594Z,0
2019-01-27T02:02:44.714Z,0
2019-01-27T02:03:46.829Z,0
2019-01-27T02:04:48.925Z,0
2019-01-27T02:05:51.050Z,0
2019-01-27T02:06:53.155Z,0
2019-01-27T02:07:55.261Z,0
2019-01-27T02:08:57.358Z,0
2019-01-27T02:09:59.477Z,0
2019-01-27T02:11:01.992Z,0
2019-01-27T02:12:04.385Z,0
2019-01-27T02:13:06.503Z,0
2019-01-27T02:14:08.599Z,0
2019-01-27T02:15:10.725Z,0
2019-01-27T02:16:12.832Z,0
2019-01-27T02:17:14.977Z,0
2019-01-27T02:18:17.501Z,0
2019-01-27T02:19:19.659Z,0
2019-01-27T02:20:22.050Z,0
2019-01-27T02:21:24.152Z,0
2019-01-27T02:22:26.274Z,0
2019-01-27T02:23:28.366Z,0
2019-01-27T02:24:30.482Z,0
2019-01-27T02:25:32.606Z,0
2019-01-27T02:26:34.704Z,0
2019-01-27T02:27:36.805Z,0
2019-01-27T02:28:38.925Z,0
2019-01-27T02:29:41.310Z,0
2019-01-27T02:30:43.423Z,0
2019-01-27T02:31:45.551Z,0
2019-01-27T02:32:47.665Z,0
2019-01-27T02:33:50.055Z,0
2019-01-27T02:34:52.178Z,0
2019-01-27T02:35:54.292Z,0
2019-01-27T02:36:56.699Z,0
2019-01-27T02:37:59.132Z,0
2019-01-27T02:39:01.231Z,0
2019-01-27T02:40:03.636Z,0
2019-01-27T02:41:05.747Z,0
2019-01-27T02:42:08.260Z,0
2019-01-27T02:43:10.922Z,0
2019-01-27T02:44:13.037Z,0
2019-01-27T02:45:15.184Z,0
2019-01-27T02:46:17.319Z,0
2019-01-27T02:47:19.730Z,0
2019-01-27T02:48:22.114Z,0
2019-01-27T02:49:24.225Z,0
2019-01-27T02:50:26.352Z,0
2019-01-27T02:51:28.497Z,0
2019-01-27T02:52:31.002Z,0
2019-01-27T02:53:33.136Z,0
2019-01-27T02:54:35.557Z,0
2019-01-27T02:55:38.266Z,0
2019-01-27T02:56:40.398Z,0
2019-01-27T02:57:42.512Z,0
2019-01-27T02:58:45.011Z,0
2019-01-27T02:59:47.129Z,0
2019-01-27T03:00:49.528Z,0
2019-01-27T03:01:52.305Z,0
2019-01-27T03:02:54.444Z,0
2019-01-27T03:03:56.565Z,0
2019-01-27T03:04:58.667Z,0
2019-01-27T03:06:00.772Z,0
2019-01-27T03:07:02.941Z,0
2019-01-27T03:08:05.043Z,0
2019-01-27T03:09:07.724Z,0
2019-01-27T03:10:09.848Z,0
2019-01-27T03:11:11.951Z,0
2019-01-27T03:12:14.077Z,0
2019-01-27T03:13:16.192Z,0
2019-01-27T03:14:18.303Z,0
2019-01-27T03:15:20.718Z,0
2019-01-27T03:16:22.830Z,0
2019-01-27T03:17:25.343Z,0
2019-01-27T03:18:27.459Z,0
2019-01-27T03:19:29.590Z,0
2019-01-27T03:20:31.725Z,0
2019-01-27T03:21:34.227Z,0
2019-01-27T03:22:36.340Z,0
2019-01-27T03:23:38.464Z,0
2019-01-27T03:24:40.914Z,0
2019-01-27T03:25:43.016Z,0
2019-01-27T03:26:45.135Z,0
2019-01-27T03:27:47.561Z,0
2019-01-27T03:28:49.675Z,0
2019-01-27T03:29:51.788Z,0
2019-01-27T03:30:53.896Z,0
2019-01-27T03:31:56.213Z,0
2019-01-27T03:32:59.062Z,0
2019-01-27T03:34:02.187Z,0
2019-01-27T03:35:04.289Z,0
2019-01-27T03:36:06.409Z,0
2019-01-27T03:37:08.525Z,0
2019-01-27T03:38:10.681Z,0
2019-01-27T03:39:13.066Z,0
2019-01-27T03:40:15.198Z,0
2019-01-27T03:41:17.304Z,0
2019-01-27T03:42:19.418Z,0
2019-01-27T03:43:21.540Z,0
2019-01-27T03:44:23.643Z,0
2019-01-27T03:45:26.076Z,0
2019-01-27T03:46:28.192Z,0
2019-01-27T03:47:30.321Z,0
2019-01-27T03:48:32.423Z,0
2019-01-27T03:49:34.551Z,0
2019-01-27T03:50:36.702Z,0
2019-01-27T03:51:38.826Z,0
2019-01-27T03:52:40.957Z,0
2019-01-27T03:53:43.062Z,0
2019-01-27T03:54:45.157Z,0
2019-01-27T03:55:47.270Z,0
2019-01-27T03:56:49.402Z,0
2019-01-27T03:57:51.813Z,0
2019-01-27T03:58:53.911Z,0
2019-01-27T03:59:56.041Z,0
2019-01-27T04:00:58.158Z,0
2019-01-27T04:02:00.252Z,0
2019-01-27T04:03:02.394Z,0
2019-01-27T04:04:04.517Z,0
2019-01-27T04:05:06.920Z,0
2019-01-27T04:06:09.066Z,0
2019-01-27T04:07:11.481Z,0
2019-01-27T04:08:13.610Z,0
2019-01-27T04:09:15.757Z,0
2019-01-27T04:10:17.872Z,0
2019-01-27T04:11:20.365Z,0
2019-01-27T04:12:22.490Z,0
2019-01-27T04:13:24.642Z,0
2019-01-27T04:14:27.124Z,0
2019-01-27T04:15:29.250Z,0
2019-01-27T04:16:31.392Z,0
2019-01-27T04:17:33.798Z,0
2019-01-27T04:18:35.933Z,0
2019-01-27T04:19:38.046Z,0
2019-01-27T04:20:40.455Z,0
2019-01-27T04:21:42.547Z,0
2019-01-27T04:22:44.682Z,0
2019-01-27T04:23:46.786Z,0
2019-01-27T04:24:49.182Z,0
2019-01-27T04:25:51.300Z,0
2019-01-27T04:26:53.982Z,0
2019-01-27T04:27:56.389Z,0
2019-01-27T04:28:59.092Z,0
2019-01-27T04:30:01.801Z,0
2019-01-27T04:31:04.307Z,0
2019-01-27T04:32:06.436Z,0
2019-01-27T04:33:08.574Z,0
2019-01-27T04:34:10.978Z,0
2019-01-27T04:35:13.374Z,0
2019-01-27T04:36:15.494Z,0
2019-01-27T04:37:17.621Z,0
2019-01-27T04:38:19.725Z,0
2019-01-27T04:39:21.852Z,0
2019-01-27T04:40:23.983Z,0
2019-01-27T04:41:26.121Z,0
2019-01-27T04:42:28.240Z,0
2019-01-27T04:43:30.347Z,0
2019-01-27T04:44:32.503Z,0
2019-01-27T04:45:34.630Z,0
2019-01-27T04:46:37.049Z,0
2019-01-27T04:47:39.153Z,0
2019-01-27T04:48:41.257Z,0
2019-01-27T04:49:43.772Z,0
2019-01-27T04:50:45.878Z,0
2019-01-27T04:51:48.026Z,0
2019-01-27T04:52:50.142Z,0
2019-01-27T04:53:52.353Z,0
2019-01-27T04:54:54.844Z,0
2019-01-27T04:55:56.971Z,0
2019-01-27T04:56:59.070Z,0
2019-01-27T04:58:01.473Z,0
2019-01-27T04:59:03.602Z,0
2019-01-27T05:00:05.980Z,0
2019-01-27T05:01:08.100Z,0
2019-01-27T05:02:10.211Z,0
2019-01-27T05:03:12.329Z,0
2019-01-27T05:04:14.431Z,0
2019-01-27T05:05:18.785Z,0
2019-01-27T05:06:20.894Z,0
2019-01-27T05:07:23.001Z,0
2019-01-27T05:08:25.522Z,0
2019-01-27T05:09:28.010Z,0
2019-01-27T05:10:30.123Z,0
2019-01-27T05:11:32.546Z,0
2019-01-27T05:12:34.661Z,0
2019-01-27T05:13:37.047Z,0
2019-01-27T05:14:39.453Z,0
2019-01-27T05:15:41.848Z,0
2019-01-27T05:16:44.270Z,0
2019-01-27T05:17:46.410Z,0
2019-01-27T05:18:48.520Z,0
2019-01-27T05:19:51.031Z,0
2019-01-27T05:20:53.444Z,0
2019-01-27T05:21:55.558Z,0
2019-01-27T05:22:57.719Z,0
2019-01-27T05:23:59.835Z,0
2019-01-27T05:25:01.927Z,0
2019-01-27T05:26:04.049Z,0
2019-01-27T05:27:06.556Z,0
2019-01-27T05:28:08.676Z,0
2019-01-27T05:29:11.445Z,0
2019-01-27T05:30:13.864Z,0
2019-01-27T05:31:15.976Z,0
2019-01-27T05:32:18.076Z,0
2019-01-27T05:33:20.477Z,0
2019-01-27T05:34:22.886Z,0
2019-01-27T05:35:24.996Z,0
2019-01-27T05:36:27.106Z,0
2019-01-27T05:37:29.250Z,0
2019-01-27T05:38:31.362Z,0
2019-01-27T05:39:33.473Z,0
2019-01-27T05:40:35.582Z,0
2019-01-27T05:41:37.687Z,0
2019-01-27T05:42:39.803Z,0
2019-01-27T05:43:41.906Z,0
2019-01-27T05:44:44.001Z,0
2019-01-27T05:45:46.110Z,0
2019-01-27T05:46:48.258Z,0
2019-01-27T05:47:50.377Z,0
2019-01-27T05:48:52.776Z,0
2019-01-27T05:49:54.890Z,0
2019-01-27T05:50:57.014Z,0
2019-01-27T05:51:59.786Z,0
2019-01-27T05:53:02.567Z,0
2019-01-27T05:54:04.695Z,0
2019-01-27T05:55:07.184Z,0
2019-01-27T05:56:09.699Z,0
2019-01-27T05:57:12.214Z,0
2019-01-27T05:58:14.312Z,0
2019-01-27T05:59:16.428Z,0
2019-01-27T06:00:18.541Z,0
2019-01-27T06:01:20.660Z,0
2019-01-27T06:02:23.160Z,0
2019-01-27T06:03:25.562Z,0
2019-01-27T06:04:28.069Z,0
2019-01-27T06:05:30.168Z,0
2019-01-27T06:06:33.054Z,0
2019-01-27T06:07:35.157Z,0
2019-01-27T06:08:37.271Z,0
2019-01-27T06:09:39.375Z,0
2019-01-27T06:10:41.777Z,0
2019-01-27T06:11:43.876Z,0
2019-01-27T06:12:46.332Z,0
2019-01-27T06:13:48.444Z,0
2019-01-27T06:14:50.539Z,0
2019-01-27T06:15:52.663Z,0
2019-01-27T06:16:54.780Z,0
2019-01-27T06:17:57.171Z,0
2019-01-27T06:18:59.282Z,0
2019-01-27T06:20:01.752Z,0
2019-01-27T06:21:03.898Z,0
2019-01-27T06:22:06.314Z,0
2019-01-27T06:23:08.437Z,0
2019-01-27T06:24:10.545Z,0
2019-01-27T06:25:13.056Z,0
2019-01-27T06:26:16.798Z,0
2019-01-27T06:27:18.939Z,0
2019-01-27T06:28:21.365Z,0
2019-01-27T06:29:23.468Z,0
2019-01-27T06:30:25.588Z,0
2019-01-27T06:31:28.014Z,0
2019-01-27T06:32:30.129Z,0
2019-01-27T06:33:32.642Z,0
2019-01-27T06:34:34.759Z,0
2019-01-27T06:35:37.144Z,0
2019-01-27T06:36:39.275Z,0
2019-01-27T06:37:41.776Z,0
2019-01-27T06:38:43.875Z,0
2019-01-27T06:39:45.997Z,0
2019-01-27T06:40:48.100Z,0
2019-01-27T06:41:50.204Z,4
2019-01-27T06:42:52.318Z,4
2019-01-27T06:43:54.445Z,4
2019-01-27T06:44:56.819Z,4
2019-01-27T06:45:58.943Z,4
2019-01-27T06:47:01.057Z,4
2019-01-27T06:48:03.718Z,4
2019-01-27T06:49:05.834Z,8
2019-01-27T06:50:07.962Z,8
2019-01-27T06:51:10.058Z,8
2019-01-27T06:52:12.566Z,12
2019-01-27T06:53:14.680Z,12
2019-01-27T06:54:17.069Z,16
2019-01-27T06:55:19.581Z,16
2019-01-27T06:56:21.705Z,20
2019-01-27T06:57:23.809Z,28
2019-01-27T06:58:25.922Z,36
2019-01-27T06:59:28.344Z,48
2019-01-27T07:00:30.478Z,52
2019-01-27T07:01:32.595Z,52
2019-01-27T07:02:34.716Z,64
2019-01-27T07:03:36.840Z,72
2019-01-27T07:04:39.232Z,76
2019-01-27T07:05:41.346Z,76
2019-01-27T07:06:43.458Z,88
2019-01-27T07:07:45.586Z,96
2019-01-27T07:08:47.976Z,116
2019-01-27T07:09:50.088Z,112
2019-01-27T07:10:52.210Z,124
2019-01-27T07:11:54.305Z,128
2019-01-27T07:12:56.740Z,140
2019-01-27T07:13:59.222Z,164
2019-01-27T07:15:01.726Z,176
2019-01-27T07:16:04.503Z,184
2019-01-27T07:17:06.630Z,192
2019-01-27T07:18:08.730Z,188
2019-01-27T07:19:10.853Z,188
2019-01-27T07:20:12.970Z,192
2019-01-27T07:21:15.069Z,212
2019-01-27T07:22:17.497Z,252
2019-01-27T07:23:19.611Z,268
2019-01-27T07:24:21.703Z,260
2019-01-27T07:25:23.810Z,260
2019-01-27T07:26:25.930Z,292
2019-01-27T07:27:28.034Z,296
2019-01-27T07:28:30.161Z,308
2019-01-27T07:29:32.263Z,296
2019-01-27T07:30:34.400Z,300
2019-01-27T07:31:36.516Z,312
2019-01-27T07:32:38.642Z,316
2019-01-27T07:33:40.783Z,336
2019-01-27T07:34:42.902Z,348
2019-01-27T07:35:45.014Z,468
2019-01-27T07:36:47.117Z,552
2019-01-27T07:37:49.239Z,628
2019-01-27T07:38:51.347Z,688
2019-01-27T07:39:53.844Z,736
2019-01-27T07:40:56.002Z,676
2019-01-27T07:41:58.124Z,628
2019-01-27T07:43:00.243Z,664
2019-01-27T07:44:02.371Z,896
2019-01-27T07:45:04.494Z,1064
2019-01-27T07:46:06.596Z,1044
2019-01-27T07:47:09.300Z,1112
2019-01-27T07:48:11.412Z,1128
2019-01-27T07:49:13.809Z,1072
2019-01-27T07:50:15.902Z,1060
2019-01-27T07:51:18.029Z,1076
2019-01-27T07:52:20.134Z,1084
2019-01-27T07:53:22.534Z,1076
2019-01-27T07:54:24.681Z,1036
2019-01-27T07:55:26.782Z,984
2019-01-27T07:56:28.908Z,968
2019-01-27T07:57:31.061Z,888
2019-01-27T07:58:33.452Z,788
2019-01-27T07:59:35.552Z,720
2019-01-27T08:00:37.665Z,664
2019-01-27T08:01:39.761Z,664
2019-01-27T08:02:41.868Z,712
2019-01-27T08:03:43.989Z,768
2019-01-27T08:04:46.097Z,804
2019-01-27T08:05:48.200Z,864
2019-01-27T08:06:50.731Z,908
2019-01-27T08:07:52.835Z,1008
2019-01-27T08:08:55.243Z,1124
2019-01-27T08:09:57.369Z,1124
2019-01-27T08:11:00.024Z,1052
2019-01-27T08:12:02.135Z,1040
2019-01-27T08:13:04.248Z,1000
2019-01-27T08:14:06.372Z,968
2019-01-27T08:15:08.471Z,980
2019-01-27T08:16:10.586Z,964
2019-01-27T08:17:12.690Z,856
2019-01-27T08:18:14.785Z,668
2019-01-27T08:19:16.915Z,628
2019-01-27T08:20:19.085Z,616
2019-01-27T08:21:21.198Z,648
2019-01-27T08:22:23.308Z,772
2019-01-27T08:23:25.408Z,1132
2019-01-27T08:24:27.811Z,1532
2019-01-27T08:25:29.910Z,1628
2019-01-27T08:26:32.019Z,1220
2019-01-27T08:27:34.142Z,940
2019-01-27T08:28:36.516Z,1000
2019-01-27T08:29:38.621Z,1024
2019-01-27T08:30:40.743Z,896
2019-01-27T08:31:42.888Z,940
2019-01-27T08:32:44.983Z,1140
2019-01-27T08:33:47.103Z,1244
2019-01-27T08:34:49.247Z,1296
2019-01-27T08:35:51.752Z,1580
2019-01-27T08:36:53.870Z,2072
2019-01-27T08:37:55.985Z,2140
2019-01-27T08:38:58.094Z,2088
2019-01-27T08:40:00.261Z,1788
2019-01-27T08:41:02.668Z,1860
2019-01-27T08:42:04.816Z,1808
2019-01-27T08:43:07.321Z,1792
2019-01-27T08:44:09.459Z,1680
2019-01-27T08:45:11.584Z,1332
2019-01-27T08:46:13.713Z,1332
2019-01-27T08:47:15.831Z,1468
2019-01-27T08:48:17.924Z,1620
2019-01-27T08:49:20.048Z,1984
2019-01-27T08:50:22.158Z,2464
2019-01-27T08:51:24.260Z,2512
2019-01-27T08:52:26.387Z,2456
2019-01-27T08:53:28.506Z,2364
2019-01-27T08:54:30.614Z,2472
2019-01-27T08:55:33.008Z,2732
2019-01-27T08:56:35.168Z,2324
2019-01-27T08:57:37.554Z,2532
2019-01-27T08:58:39.657Z,2904
2019-01-27T08:59:42.046Z,2624
2019-01-27T09:00:44.178Z,2612
2019-01-27T09:01:46.277Z,2792
2019-01-27T09:02:48.384Z,3476
2019-01-27T09:03:50.510Z,3628
2019-01-27T09:04:52.626Z,3012
2019-01-27T09:05:54.732Z,3000
2019-01-27T09:06:57.136Z,2924
2019-01-27T09:07:59.236Z,3008
2019-01-27T09:09:01.351Z,2960
2019-01-27T09:10:03.483Z,3008
2019-01-27T09:11:05.605Z,3428
2019-01-27T09:12:08.270Z,4004
2019-01-27T09:13:11.229Z,4812
2019-01-27T09:14:13.539Z,4532
2019-01-27T09:15:15.646Z,3424
2019-01-27T09:16:18.493Z,2996
2019-01-27T09:17:20.586Z,2728
2019-01-27T09:18:22.989Z,2808
2019-01-27T09:19:25.410Z,2748
2019-01-27T09:20:27.527Z,3140
2019-01-27T09:21:29.621Z,3756
2019-01-27T09:22:31.731Z,3604
2019-01-27T09:23:34.161Z,3080
2019-01-27T09:24:36.261Z,3012
2019-01-27T09:25:38.388Z,3144
2019-01-27T09:26:40.482Z,3348
2019-01-27T09:27:42.594Z,3472
2019-01-27T09:28:44.695Z,3768
2019-01-27T09:29:46.826Z,3844
2019-01-27T09:30:48.983Z,3880
2019-01-27T09:31:51.109Z,4164
2019-01-27T09:32:53.234Z,4772
2019-01-27T09:33:55.342Z,5708
2019-01-27T09:34:57.758Z,5880
2019-01-27T09:35:59.882Z,4728
2019-01-27T09:37:02.284Z,4792
2019-01-27T09:38:04.394Z,5144
2019-01-27T09:39:06.493Z,4444
2019-01-27T09:40:08.615Z,4580
2019-01-27T09:41:11.011Z,5260
2019-01-27T09:42:13.123Z,6292
2019-01-27T09:43:15.239Z,5332
2019-01-27T09:44:17.347Z,4560
2019-01-27T09:45:19.455Z,5280
2019-01-27T09:46:21.592Z,5780
2019-01-27T09:47:24.100Z,6188
2019-01-27T09:48:26.202Z,6684
2019-01-27T09:49:28.337Z,6016
2019-01-27T09:50:30.444Z,6180
2019-01-27T09:51:32.556Z,5636
2019-01-27T09:52:34.999Z,5148
2019-01-27T09:53:37.127Z,4296
2019-01-27T09:54:39.244Z,3728
2019-01-27T09:55:41.363Z,3956
2019-01-27T09:56:44.945Z,3516
2019-01-27T09:57:47.045Z,3112
2019-01-27T09:58:49.463Z,3460
2019-01-27T09:59:51.565Z,3316
2019-01-27T10:00:53.961Z,3600
2019-01-27T10:01:56.075Z,3500
2019-01-27T10:02:58.500Z,4232
2019-01-27T10:04:00.610Z,4684
2019-01-27T10:05:02.732Z,5316
2019-01-27T10:06:04.858Z,6168
2019-01-27T10:07:06.960Z,7244
2019-01-27T10:08:09.474Z,7516
2019-01-27T10:09:11.589Z,7432
2019-01-27T10:10:13.975Z,8828
2019-01-27T10:11:16.089Z,9076
2019-01-27T10:12:18.224Z,8964
2019-01-27T10:13:20.327Z,9580
2019-01-27T10:14:22.486Z,10984
2019-01-27T10:15:24.613Z,10952
2019-01-27T10:16:26.728Z,11288
2019-01-27T10:17:28.845Z,10920
2019-01-27T10:18:30.962Z,8100
2019-01-27T10:19:33.057Z,6132
2019-01-27T10:20:35.166Z,5564
2019-01-27T10:21:37.281Z,4880
2019-01-27T10:22:39.396Z,4944
2019-01-27T10:23:41.526Z,5324
2019-01-27T10:24:44.039Z,5028
2019-01-27T10:25:46.150Z,5888
2019-01-27T10:26:48.268Z,5864
2019-01-27T10:27:50.424Z,5884
2019-01-27T10:28:52.525Z,5876
2019-01-27T10:29:54.644Z,5908
2019-01-27T10:30:56.775Z,6500
2019-01-27T10:31:58.872Z,6344
2019-01-27T10:33:00.994Z,7056
2019-01-27T10:34:03.125Z,6244
2019-01-27T10:35:05.251Z,5636
2019-01-27T10:36:07.352Z,5484
2019-01-27T10:37:12.132Z,4932
2019-01-27T10:38:14.785Z,4808
2019-01-27T10:39:16.888Z,5224
2019-01-27T10:40:19.020Z,6348
2019-01-27T10:41:21.511Z,8036
2019-01-27T10:42:23.632Z,8180
2019-01-27T10:43:26.038Z,7316
2019-01-27T10:44:28.148Z,6632
2019-01-27T10:45:30.248Z,6408
2019-01-27T10:46:32.370Z,7364
2019-01-27T10:47:34.474Z,8872
2019-01-27T10:48:36.605Z,10176
2019-01-27T10:49:38.729Z,11548
2019-01-27T10:50:40.851Z,11652
2019-01-27T10:51:43.356Z,12428
2019-01-27T10:52:45.464Z,15684
2019-01-27T10:53:47.581Z,15248
2019-01-27T10:54:49.698Z,13012
2019-01-27T10:55:51.801Z,12988
2019-01-27T10:56:53.945Z,15044
2019-01-27T10:57:56.049Z,13972
2019-01-27T10:58:58.158Z,13168
2019-01-27T11:00:00.278Z,12532
2019-01-27T11:01:02.552Z,11624
2019-01-27T11:02:04.652Z,15088
2019-01-27T11:03:06.762Z,18912
2019-01-27T11:04:09.451Z,19680
2019-01-27T11:05:11.547Z,20192
2019-01-27T11:06:13.678Z,22176
2019-01-27T11:07:15.797Z,19808
2019-01-27T11:08:17.920Z,18400
2019-01-27T11:09:20.026Z,15944
2019-01-27T11:10:22.431Z,11620
2019-01-27T11:11:24.531Z,9612
2019-01-27T11:12:26.649Z,8564
2019-01-27T11:13:29.062Z,6856
2019-01-27T11:14:31.456Z,7728
2019-01-27T11:15:33.609Z,9936
2019-01-27T11:16:35.751Z,11012
2019-01-27T11:17:37.868Z,10476
2019-01-27T11:18:39.978Z,10172
2019-01-27T11:19:42.375Z,9800
2019-01-27T11:20:45.433Z,8100
2019-01-27T11:21:47.615Z,8652
2019-01-27T11:22:49.742Z,10280
2019-01-27T11:23:51.853Z,11372
2019-01-27T11:24:53.959Z,10136
2019-01-27T11:26:00.104Z,8880
2019-01-27T11:27:03.834Z,6416
2019-01-27T11:28:05.953Z,5876
2019-01-27T11:29:08.066Z,4508
2019-01-27T11:30:10.206Z,4464
2019-01-27T11:31:12.320Z,4044
2019-01-27T11:32:14.438Z,4100
2019-01-27T11:33:16.560Z,3976
2019-01-27T11:34:18.692Z,4008
2019-01-27T11:35:20.823Z,4132
2019-01-27T11:36:22.935Z,4032
2019-01-27T11:37:25.066Z,4452
2019-01-27T11:38:27.182Z,4696
2019-01-27T11:39:29.632Z,5084
2019-01-27T11:40:32.147Z,5380
2019-01-27T11:41:34.269Z,5420
2019-01-27T11:42:36.360Z,5596
2019-01-27T11:43:38.486Z,5944
2019-01-27T11:44:40.608Z,6012
2019-01-27T11:45:42.997Z,6276
2019-01-27T11:46:45.185Z,6420
2019-01-27T11:47:47.283Z,5952
2019-01-27T11:48:49.422Z,5092
2019-01-27T11:49:51.546Z,4676
2019-01-27T11:50:53.659Z,4776
2019-01-27T11:51:55.765Z,5016
2019-01-27T11:52:57.876Z,5360
2019-01-27T11:53:59.976Z,5848
2019-01-27T11:55:02.091Z,5892
2019-01-27T11:56:04.498Z,5256
2019-01-27T11:57:06.611Z,5052
2019-01-27T11:58:08.719Z,4856
2019-01-27T11:59:10.866Z,4588
2019-01-27T12:00:12.974Z,4864
2019-01-27T12:01:15.083Z,5012
2019-01-27T12:02:17.208Z,5172
2019-01-27T12:03:19.314Z,5448
2019-01-27T12:04:21.453Z,5664
2019-01-27T12:05:23.565Z,5676
2019-01-27T12:06:25.697Z,5864
2019-01-27T12:07:28.196Z,6016
2019-01-27T12:08:30.309Z,6148
2019-01-27T12:09:32.422Z,6436
2019-01-27T12:10:34.545Z,6872
2019-01-27T12:11:36.646Z,6828
2019-01-27T12:12:38.790Z,5324
2019-01-27T12:13:40.905Z,3944
2019-01-27T12:14:43.033Z,3404
2019-01-27T12:15:45.149Z,3372
2019-01-27T12:16:47.281Z,3516
2019-01-27T12:17:49.698Z,3816
2019-01-27T12:18:51.820Z,4300
2019-01-27T12:19:53.948Z,4536
2019-01-27T12:20:56.061Z,4720
2019-01-27T12:21:58.469Z,4900
2019-01-27T12:23:00.908Z,4920
2019-01-27T12:24:03.589Z,4964
2019-01-27T12:25:05.988Z,4608
2019-01-27T12:26:08.096Z,4580
2019-01-27T12:27:10.204Z,4680
2019-01-27T12:28:12.330Z,4464
2019-01-27T12:29:15.022Z,4752
2019-01-27T12:30:17.146Z,4960
2019-01-27T12:31:19.257Z,5016
2019-01-27T12:32:21.426Z,5288
2019-01-27T12:33:23.529Z,4892
2019-01-27T12:34:25.633Z,4576
2019-01-27T12:35:28.040Z,4172
2019-01-27T12:36:30.146Z,3868
2019-01-27T12:37:32.282Z,3764
2019-01-27T12:38:34.694Z,3784
2019-01-27T12:39:36.824Z,3876
2019-01-27T12:40:38.927Z,3644
2019-01-27T12:41:41.053Z,3752
2019-01-27T12:42:43.177Z,3792
2019-01-27T12:43:45.331Z,3824
2019-01-27T12:44:47.489Z,3856
2019-01-27T12:45:49.601Z,4128
2019-01-27T12:46:51.716Z,4204
2019-01-27T12:47:53.835Z,4212
2019-01-27T12:48:55.976Z,4372
2019-01-27T12:49:58.079Z,4872
2019-01-27T12:51:00.208Z,5528
2019-01-27T12:52:02.378Z,5652
2019-01-27T12:53:04.485Z,5224
2019-01-27T12:54:06.622Z,4988
2019-01-27T12:55:10.336Z,5124
2019-01-27T12:56:12.443Z,4844
2019-01-27T12:57:14.558Z,4884
2019-01-27T12:58:17.076Z,4848
2019-01-27T12:59:19.184Z,4424
2019-01-27T13:00:22.921Z,4520
2019-01-27T13:01:25.325Z,4908
2019-01-27T13:02:27.434Z,4436
2019-01-27T13:03:29.546Z,3916
2019-01-27T13:04:31.978Z,3700
2019-01-27T13:05:34.129Z,3760
2019-01-27T13:06:36.547Z,4292
2019-01-27T13:07:38.677Z,3820
2019-01-27T13:08:40.787Z,4168
2019-01-27T13:09:42.920Z,4148
2019-01-27T13:10:45.031Z,4148
2019-01-27T13:11:47.155Z,4244
2019-01-27T13:12:49.273Z,4120
2019-01-27T13:13:51.431Z,4616
2019-01-27T13:14:53.535Z,4512
2019-01-27T13:15:55.688Z,4416
2019-01-27T13:16:57.805Z,4248
2019-01-27T13:17:59.904Z,4348
2019-01-27T13:19:02.317Z,4776
2019-01-27T13:20:04.448Z,4704
2019-01-27T13:21:08.563Z,4504
2019-01-27T13:22:12.280Z,4420
2019-01-27T13:23:14.877Z,4720
2019-01-27T13:24:16.996Z,4776
2019-01-27T13:25:19.437Z,4364
2019-01-27T13:26:21.921Z,3996
2019-01-27T13:27:24.052Z,3720
2019-01-27T13:28:26.203Z,3392
2019-01-27T13:29:28.319Z,3324
2019-01-27T13:30:30.448Z,3468
2019-01-27T13:31:32.620Z,3400
2019-01-27T13:32:34.726Z,3108
2019-01-27T13:33:36.850Z,3036
2019-01-27T13:34:39.642Z,3324
2019-01-27T13:35:42.136Z,3556
2019-01-27T13:36:44.935Z,3672
2019-01-27T13:37:47.064Z,3640
2019-01-27T13:38:51.081Z,3424
2019-01-27T13:39:53.379Z,3208
2019-01-27T13:40:55.816Z,3100
2019-01-27T13:41:58.100Z,3084
2019-01-27T13:43:00.229Z,3324
2019-01-27T13:44:02.343Z,3216
2019-01-27T13:45:04.468Z,3020
2019-01-27T13:46:06.581Z,2800
2019-01-27T13:47:08.708Z,2472
2019-01-27T13:48:11.198Z,2324
2019-01-27T13:49:13.308Z,2312
2019-01-27T13:50:15.711Z,2340
2019-01-27T13:51:17.838Z,2344
2019-01-27T13:52:20.280Z,2408
2019-01-27T13:53:22.782Z,2684
2019-01-27T13:54:24.892Z,2812
2019-01-27T13:55:27.039Z,2916
2019-01-27T13:56:29.790Z,2816
2019-01-27T13:57:31.900Z,2652
2019-01-27T13:58:34.053Z,2572
2019-01-27T13:59:36.210Z,2480
2019-01-27T14:00:38.315Z,2448
2019-01-27T14:01:40.447Z,2496
2019-01-27T14:02:42.564Z,2804
2019-01-27T14:03:44.681Z,3028
2019-01-27T14:04:48.491Z,2884
2019-01-27T14:05:51.067Z,2904
2019-01-27T14:06:53.215Z,2820
2019-01-27T14:07:55.334Z,2644
2019-01-27T14:08:57.453Z,2520
2019-01-27T14:09:59.876Z,2428
2019-01-27T14:11:02.164Z,2488
2019-01-27T14:12:04.270Z,2660
2019-01-27T14:13:06.404Z,2856
2019-01-27T14:14:08.547Z,3068
2019-01-27T14:15:12.678Z,3408
2019-01-27T14:16:15.304Z,3664
2019-01-27T14:17:17.832Z,3636
2019-01-27T14:18:19.963Z,3348
2019-01-27T14:19:22.095Z,3028
2019-01-27T14:20:24.226Z,2928
2019-01-27T14:21:26.339Z,3076
2019-01-27T14:22:28.463Z,3124
2019-01-27T14:23:30.870Z,3012
2019-01-27T14:24:32.983Z,2824
2019-01-27T14:25:35.106Z,2800
2019-01-27T14:26:37.225Z,2848
2019-01-27T14:27:39.366Z,2768
2019-01-27T14:28:41.490Z,2572
2019-01-27T14:29:43.631Z,2396
2019-01-27T14:30:45.775Z,2312
2019-01-27T14:31:48.451Z,2396